Time;durP1;ratioP1;P1;durP2;ratioP2;P2;SDS_P1;SDS_P2;PMS_P1;PMS_P2;Temp;Humidity;BMP_temperature;BMP_pressure;BME280_temperature;BME280_humidity;BME280_pressure;Samples;Min_cycle;Max_cycle;Signal;HPM_P1;HPM_P2
2022/03/05 00:01:33;;;;;;;28.02;12.70;;;;;;;-0.03;94.96;102079.81;5052588;28;20496;-55
2022/03/05 00:04:01;;;;;;;27.40;12.10;;;;;;;-0.03;94.97;102072.03;5052458;28;20439;-54
2022/03/05 00:06:29;;;;;;;25.77;10.35;;;;;;;-0.09;95.20;102082.41;5052733;28;20056;-51
2022/03/05 00:08:58;;;;;;;27.48;12.15;;;;;;;-0.11;95.52;102066.00;5052322;28;20439;-52
2022/03/05 00:11:26;;;;;;;26.88;11.88;;;;;;;-0.21;95.65;102070.34;5049011;28;20400;-54
2022/03/05 00:13:54;;;;;;;27.17;10.98;;;;;;;-0.18;95.76;102073.78;5048527;28;20063;-52
2022/03/05 00:16:22;;;;;;;30.05;11.48;;;;;;;-0.15;95.38;102075.53;5051473;28;20365;-51
2022/03/05 00:18:52;;;;;;;27.20;11.55;;;;;;;-0.11;95.20;102073.78;5050627;28;20056;-54
2022/03/05 00:21:20;;;;;;;29.33;12.10;;;;;;;-0.14;95.36;102076.38;5049134;28;20078;-53
2022/03/05 00:23:48;;;;;;;29.67;12.18;;;;;;;-0.19;95.08;102078.97;5051101;28;20048;-53
2022/03/05 00:26:17;;;;;;;29.10;13.20;;;;;;;-0.27;95.46;102076.38;5052136;28;20048;-54
2022/03/05 00:28:45;;;;;;;31.85;13.50;;;;;;;-0.31;95.93;102076.38;5052113;28;20044;-50
2022/03/05 00:31:13;;;;;;;31.83;13.00;;;;;;;-0.30;96.02;102073.81;5051707;28;20051;-52
2022/03/05 00:33:41;;;;;;;29.42;12.85;;;;;;;-0.29;96.11;102078.09;5051535;28;20068;-50
2022/03/05 00:36:11;;;;;;;32.33;12.43;;;;;;;-0.40;96.50;102078.09;5052067;28;20095;-51
2022/03/05 00:38:39;;;;;;;28.25;12.02;;;;;;;-0.36;95.84;102071.19;5049086;28;20060;-53
2022/03/05 00:41:08;;;;;;;27.77;11.60;;;;;;;-0.43;96.46;102079.84;5048802;28;20049;-52
2022/03/05 00:43:36;;;;;;;28.83;10.98;;;;;;;-0.43;96.13;102075.50;5051643;28;20045;-54
2022/03/05 00:46:04;;;;;;;28.27;11.85;;;;;;;-0.40;96.00;102072.06;5051798;28;20049;-51
2022/03/05 00:48:32;;;;;;;25.05;11.15;;;;;;;-0.47;96.59;102070.34;5052061;28;20037;-53
2022/03/05 00:51:00;;;;;;;23.20;9.82;;;;;;;-0.44;96.53;102072.94;5051968;28;20049;-53
2022/03/05 00:53:30;;;;;;;25.38;10.73;;;;;;;-0.45;96.21;102066.03;5052122;28;20048;-54
2022/03/05 00:55:58;;;;;;;25.75;11.40;;;;;;;-0.55;96.79;102080.69;5052055;28;20491;-54
2022/03/05 00:58:26;;;;;;;26.15;11.85;;;;;;;-0.57;97.17;102069.50;5051951;28;20099;-54
2022/03/05 01:00:54;;;;;;;28.05;11.00;;;;;;;-0.63;97.28;102065.16;5051750;28;20049;-52
2022/03/05 01:03:23;;;;;;;29.92;11.52;;;;;;;-0.60;97.31;102064.28;5051654;28;20134;-51
2022/03/05 01:05:51;;;;;;;23.90;10.13;;;;;;;-0.60;96.68;102064.28;5048129;28;20052;-52
2022/03/05 01:08:19;;;;;;;23.77;11.07;;;;;;;-0.62;97.02;102059.13;5049031;28;20092;-59
2022/03/05 01:10:49;;;;;;;24.83;10.80;;;;;;;-0.63;97.20;102059.13;5051633;28;20079;-54
2022/03/05 01:13:17;;;;;;;22.83;11.02;;;;;;;-0.65;97.43;102056.56;5049598;28;20447;-59
2022/03/05 01:15:45;;;;;;;31.23;12.07;;;;;;;-0.73;97.80;102063.44;5047519;28;20049;-52
2022/03/05 01:18:13;;;;;;;27.77;11.25;;;;;;;-0.74;97.66;102059.13;5050026;28;20095;-55
2022/03/05 01:20:42;;;;;;;29.60;11.63;;;;;;;-0.61;97.45;102060.84;5051002;28;20072;-54
2022/03/05 01:23:10;;;;;;;29.13;11.70;;;;;;;-0.74;97.50;102072.88;5051224;28;20056;-59
2022/03/05 01:25:38;;;;;;;28.60;11.02;;;;;;;-0.71;97.27;102066.88;5053391;28;20048;-53
2022/03/05 01:28:11;;;;;;;30.20;10.77;;;;;;;-0.78;97.46;102072.88;5055302;28;20091;-59
2022/03/05 01:30:39;;;;;;;;;;;;;;;-0.81;97.65;102071.16;5055931;28;20041;-60
2022/03/05 01:33:07;;;;;;;27.25;11.00;;;;;;;-0.77;97.68;102066.88;5051147;28;19932;-53
2022/03/05 01:35:35;;;;;;;27.40;11.82;;;;;;;-0.79;97.54;102068.56;5052254;28;20052;-58
2022/03/05 01:38:03;;;;;;;29.20;11.95;;;;;;;-0.80;97.92;102067.72;5055179;28;20052;-61
2022/03/05 01:40:32;;;;;;;28.30;11.90;;;;;;;-0.83;97.88;102061.69;5053375;28;20053;-51
2022/03/05 01:43:00;;;;;;;27.58;10.93;;;;;;;-0.80;97.44;102061.72;5050615;28;20044;-54
2022/03/05 01:45:30;;;;;;;33.88;13.60;;;;;;;-0.93;98.39;102064.25;5054419;28;20049;-59
2022/03/05 01:47:59;;;;;;;30.38;13.10;;;;;;;-0.96;98.29;102068.56;5055176;28;20103;-60
2022/03/05 01:50:27;;;;;;;35.78;13.98;;;;;;;-0.98;98.49;102065.97;5055060;28;20063;-59
2022/03/05 01:52:56;;;;;;;28.90;11.20;;;;;;;-0.90;98.45;102065.97;5055167;28;20048;-58
2022/03/05 01:55:24;;;;;;;33.70;14.80;;;;;;;-0.99;98.89;102064.25;5055076;28;20044;-61
2022/03/05 01:57:53;;;;;;;29.70;13.05;;;;;;;-1.01;98.55;102060.78;5054770;28;20048;-60
2022/03/05 02:00:21;;;;;;;33.50;13.93;;;;;;;-1.03;98.86;102062.50;5054420;28;20053;-59
2022/03/05 02:02:51;;;;;;;36.85;14.25;;;;;;;-1.04;99.28;102060.78;5055071;28;20064;-53
2022/03/05 02:05:19;;;;;;;35.40;15.27;;;;;;;-1.13;99.70;102059.03;5054466;28;20044;-53
2022/03/05 02:07:47;;;;;;;33.92;13.98;;;;;;;-1.16;99.93;102059.00;5054669;28;20059;-59
2022/03/05 02:10:16;;;;;;;37.33;14.38;;;;;;;-1.16;99.45;102058.16;5054569;28;20049;-59
2022/03/05 02:12:45;;;;;;;33.47;14.20;;;;;;;-1.14;99.60;102059.03;5054434;28;20048;-53
2022/03/05 02:15:13;;;;;;;35.53;14.77;;;;;;;-1.15;99.62;102058.16;5054338;28;20049;-61
2022/03/05 02:17:41;;;;;;;34.47;14.35;;;;;;;-1.21;99.95;102046.09;5054558;28;20083;-58
2022/03/05 02:20:11;;;;;;;33.53;13.13;;;;;;;-1.10;99.84;102047.88;5054578;28;20488;-60
2022/03/05 02:22:41;;;;;;;34.40;14.13;;;;;;;-1.20;100.00;102042.66;5053123;28;20064;-59
2022/03/05 02:25:10;;;;;;;34.83;15.48;;;;;;;-1.12;99.85;102045.25;5054161;28;20052;-54
2022/03/05 02:27:38;;;;;;;34.78;14.38;;;;;;;-1.13;99.72;102048.72;5054423;28;20049;-52
2022/03/05 02:30:08;;;;;;;38.75;14.10;;;;;;;-1.20;99.95;102047.84;5054423;28;20041;-59
2022/03/05 02:32:37;;;;;;;33.15;13.95;;;;;;;-1.20;99.99;102049.53;5053978;28;20064;-51
2022/03/05 02:35:06;;;;;;;36.60;14.07;;;;;;;-1.28;100.00;102041.78;5054071;28;20526;-54
2022/03/05 02:37:34;;;;;;;31.35;13.70;;;;;;;-1.27;100.00;102045.22;5054130;28;20049;-58
2022/03/05 02:40:04;;;;;;;31.75;12.95;;;;;;;-1.24;100.00;102042.63;5053965;28;20045;-55
2022/03/05 02:42:32;;;;;;;35.50;13.32;;;;;;;-1.32;100.00;102042.63;5053798;28;20045;-59
2022/03/05 02:45:00;;;;;;;31.42;13.50;;;;;;;-1.34;100.00;102049.50;5053759;28;20103;-54
2022/03/05 02:47:29;;;;;;;35.50;13.65;;;;;;;-1.41;100.00;102035.69;5052312;28;20480;-59
2022/03/05 02:49:57;;;;;;;35.40;13.77;;;;;;;-1.47;100.00;102047.72;5053665;28;20045;-59
2022/03/05 02:52:25;;;;;;;34.88;13.52;;;;;;;-1.49;100.00;102047.72;5053557;28;20102;-52
2022/03/05 02:54:53;;;;;;;31.60;12.95;;;;;;;-1.52;100.00;102044.28;5053609;28;20092;-52
2022/03/05 02:57:23;;;;;;;34.35;13.75;;;;;;;-1.44;100.00;102040.00;5053786;28;20446;-52
2022/03/05 02:59:51;;;;;;;37.42;15.20;;;;;;;-1.47;100.00;102045.13;5053631;28;20040;-54
2022/03/05 03:02:19;;;;;;;41.75;16.98;;;;;;;-1.48;100.00;102036.53;5053401;28;20516;-52
2022/03/05 03:04:47;;;;;;;36.13;14.68;;;;;;;-1.44;100.00;102034.84;5053563;28;20049;-52
2022/03/05 03:07:16;;;;;;;41.05;16.83;;;;;;;-1.39;100.00;102038.28;5053365;28;20049;-53
2022/03/05 03:09:45;;;;;;;41.83;16.50;;;;;;;-1.44;100.00;102040.00;5053351;28;20041;-53
2022/03/05 03:12:13;;;;;;;39.33;14.70;;;;;;;-1.45;100.00;102036.53;5053355;28;20057;-54
2022/03/05 03:14:42;;;;;;;34.97;14.73;;;;;;;-1.46;100.00;102040.00;5053412;28;20044;-54
2022/03/05 03:17:11;;;;;;;41.65;16.60;;;;;;;-1.51;100.00;102035.66;5053288;28;20167;-59
2022/03/05 03:19:39;;;;;;;37.58;16.52;;;;;;;-1.51;100.00;102041.69;5053317;28;20033;-59
2022/03/05 03:22:07;;;;;;;35.13;14.70;;;;;;;-1.54;100.00;102034.81;5053421;28;20049;-59
2022/03/05 03:24:36;;;;;;;42.03;16.67;;;;;;;-1.59;100.00;102038.22;5053200;28;20492;-51
2022/03/05 03:27:05;;;;;;;38.22;15.52;;;;;;;-1.56;100.00;102033.06;5053218;28;20079;-52
2022/03/05 03:29:33;;;;;;;38.38;15.73;;;;;;;-1.56;100.00;102036.50;5052974;28;20530;-51
2022/03/05 03:32:04;;;;;;;40.90;16.95;;;;;;;-1.48;100.00;102033.13;5052678;28;20057;-51
2022/03/05 03:34:32;;;;;;;39.53;16.05;;;;;;;-1.57;100.00;102033.91;5052506;28;20052;-51
2022/03/05 03:37:00;;;;;;;43.88;17.15;;;;;;;-1.60;100.00;102027.03;5052810;28;20041;-51
2022/03/05 03:39:29;;;;;;;41.33;17.10;;;;;;;-1.61;100.00;102029.59;5052874;28;20530;-53
2022/03/05 03:41:57;;;;;;;40.92;15.63;;;;;;;-1.66;100.00;102027.00;5052969;28;20106;-50
2022/03/05 03:44:25;;;;;;;41.05;16.52;;;;;;;-1.75;100.00;102022.66;5051886;28;20041;-53
2022/03/05 03:46:53;;;;;;;44.17;15.15;;;;;;;-1.77;100.00;102032.13;5053048;28;20384;-54
2022/03/05 03:49:23;;;;;;;44.53;16.45;;;;;;;-1.72;100.00;102042.44;5052685;28;20099;-54
2022/03/05 03:51:51;;;;;;;45.05;17.88;;;;;;;-1.66;100.00;102039.91;5052887;28;20083;-53
2022/03/05 03:54:19;;;;;;;43.35;16.35;;;;;;;-1.71;100.00;102041.59;5052579;28;20049;-51
2022/03/05 03:56:48;;;;;;;48.08;17.27;;;;;;;-1.76;100.00;102041.59;5052422;28;20056;-51
2022/03/05 03:59:16;;;;;;;40.25;15.73;;;;;;;-1.78;100.00;102047.59;5052484;28;20094;-52
2022/03/05 04:01:44;;;;;;;47.60;16.83;;;;;;;-1.80;100.00;102047.59;5052205;28;20160;-52
2022/03/05 04:04:12;;;;;;;45.50;17.60;;;;;;;-1.78;100.00;102051.03;5052593;28;20490;-49
2022/03/05 04:09:27;;;;;;;43.90;16.73;;;;;;;-1.90;100.00;102051.81;5052312;28;20063;-51
2022/03/05 04:11:55;;;;;;;43.35;17.27;;;;;;;-1.85;100.00;102056.13;5052421;28;20138;-53
2022/03/05 04:14:24;;;;;;;45.50;17.60;;;;;;;-1.81;100.00;102051.00;5052147;28;20052;-50
2022/03/05 04:16:52;;;;;;;41.45;17.05;;;;;;;-1.88;100.00;102050.09;5052185;28;20048;-51
2022/03/05 04:19:20;;;;;;;37.40;15.45;;;;;;;-1.83;100.00;102062.16;5052204;28;20083;-52
2022/03/05 04:21:50;;;;;;;44.95;16.17;;;;;;;-1.84;100.00;102051.00;5052541;28;20052;-53
2022/03/05 04:24:18;;;;;;;39.03;15.35;;;;;;;-1.86;100.00;102055.28;5052041;28;20060;-52
2022/03/05 04:26:47;;;;;;;43.65;14.75;;;;;;;-1.91;100.00;102057.84;5052031;28;20441;-50
2022/03/05 04:29:15;;;;;;;37.60;15.43;;;;;;;-1.91;100.00;102060.41;5052413;28;20080;-53
2022/03/05 04:31:43;;;;;;;42.65;16.02;;;;;;;-1.90;100.00;102059.53;5052277;28;20037;-52
2022/03/05 04:34:11;;;;;;;41.22;16.17;;;;;;;-1.94;100.00;102054.38;5052531;28;20045;-53
2022/03/05 04:36:39;;;;;;;45.28;16.42;;;;;;;-1.99;100.00;102049.19;5052089;28;20068;-52
2022/03/05 04:39:08;;;;;;;43.13;17.92;;;;;;;-2.06;100.00;102049.97;5051940;28;20055;-59
2022/03/05 04:41:37;;;;;;;43.38;16.65;;;;;;;-2.02;100.00;102064.63;5051982;28;20044;-50
2022/03/05 04:44:05;;;;;;;40.63;16.98;;;;;;;-2.11;100.00;102062.00;5051776;28;20063;-55
2022/03/05 04:46:33;;;;;;;43.72;16.73;;;;;;;-2.09;100.00;102058.56;5051719;28;20127;-59
2022/03/05 04:49:01;;;;;;;46.28;16.27;;;;;;;-2.01;100.00;102055.19;5051793;28;20045;-59
2022/03/05 04:51:30;;;;;;;43.42;17.20;;;;;;;-1.99;100.00;102056.03;5051787;28;20045;-53
2022/03/05 04:53:58;;;;;;;50.35;17.70;;;;;;;-2.04;100.00;102064.63;5051965;28;20095;-59
2022/03/05 04:56:27;;;;;;;46.35;18.38;;;;;;;-1.99;100.00;102062.09;5053666;28;20496;-53
2022/03/05 04:58:55;;;;;;;37.30;13.82;;;;;;;-1.96;100.00;102062.09;5055897;28;20045;-59
2022/03/05 05:01:23;;;;;;;42.28;15.98;;;;;;;-1.98;100.00;102061.22;5055721;28;20425;-58
2022/03/05 05:03:52;;;;;;;43.05;16.33;;;;;;;-2.05;100.00;102065.47;5055848;28;20033;-58
2022/03/05 05:06:20;;;;;;;38.53;14.65;;;;;;;-1.98;100.00;102065.50;5055624;28;20045;-59
2022/03/05 05:08:49;;;;;;;45.03;16.95;;;;;;;-2.04;100.00;102074.94;5055733;28;20100;-54
2022/03/05 05:11:17;;;;;;;46.80;17.50;;;;;;;-2.04;100.00;102081.81;5055654;28;20041;-58
2022/03/05 05:13:46;;;;;;;39.42;16.10;;;;;;;-2.00;100.00;102080.09;5055751;28;20041;-53
2022/03/05 05:16:15;;;;;;;43.83;17.45;;;;;;;-2.03;100.00;102083.53;5054418;28;20442;-53
2022/03/05 05:19:24;;;;;;;50.78;18.58;;;;;;;-2.01;100.00;102076.66;5055544;28;20519;-51
2022/03/05 05:21:31;;;;;;;44.20;18.10;;;;;;;-2.06;100.00;102083.50;5054060;28;20049;-58
2022/03/05 05:23:59;;;;;;;45.13;17.67;;;;;;;-2.12;100.00;102078.31;5055493;28;20526;-58
2022/03/05 05:26:27;;;;;;;40.30;16.55;;;;;;;-2.12;100.00;102084.31;5054787;28;20056;-52
2022/03/05 05:28:57;;;;;;;47.75;17.40;;;;;;;-2.09;100.00;102078.31;5055077;28;20052;-53
2022/03/05 05:31:25;;;;;;;42.72;15.68;;;;;;;-2.14;100.00;102080.00;5055280;28;20040;-58
2022/03/05 05:33:53;;;;;;;40.33;15.73;;;;;;;-2.11;100.00;102074.91;5055455;28;20045;-58
2022/03/05 05:36:21;;;;;;;41.45;15.63;;;;;;;-2.20;100.00;102085.97;5053901;28;20165;-58
2022/03/05 05:38:50;;;;;;;41.22;16.55;;;;;;;-2.17;100.00;102085.16;5055095;28;20198;-50
2022/03/05 05:41:18;;;;;;;42.42;16.63;;;;;;;-2.11;100.00;102080.06;5055041;28;20052;-58
2022/03/05 05:43:46;;;;;;;40.20;15.27;;;;;;;-2.13;100.00;102076.59;5054999;28;20045;-52
2022/03/05 05:46:16;;;;;;;42.35;17.08;;;;;;;-2.18;100.00;102086.00;5055379;28;20098;-53
2022/03/05 05:48:54;;;;;;;43.67;15.52;;;;;;;-2.17;100.00;102080.84;5053527;28;20056;-51
2022/03/05 05:51:22;;;;;;;44.83;18.83;;;;;;;-2.25;100.00;102083.38;5054813;28;20392;-55
2022/03/05 05:53:55;;;;;;;;;;;;;;;-2.21;100.00;102084.25;5055535;28;20049;-58
2022/03/05 05:56:24;;;;;;;45.28;18.73;;;;;;;-2.19;100.00;102081.72;5054801;28;19928;-54
2022/03/05 05:58:52;;;;;;;53.80;18.02;;;;;;;-2.26;100.00;102086.81;5055136;28;20067;-58
2022/03/05 06:01:22;;;;;;;50.08;18.80;;;;;;;-2.32;100.00;102085.88;5054498;28;20045;-58
2022/03/05 06:03:50;;;;;;;41.90;16.15;;;;;;;-2.30;100.00;102089.34;5054807;28;20507;-53
2022/03/05 06:06:19;;;;;;;46.42;17.02;;;;;;;-2.28;100.00;102085.06;5054547;28;20052;-52
2022/03/05 06:08:47;;;;;;;42.33;15.88;;;;;;;-2.26;100.00;102083.38;5053763;28;20040;-58
2022/03/05 06:11:15;;;;;;;44.83;16.15;;;;;;;-2.24;100.00;102081.66;5054633;28;20488;-58
2022/03/05 06:13:43;;;;;;;43.45;16.17;;;;;;;-2.25;100.00;102080.81;5054251;28;20045;-58
2022/03/05 06:16:12;;;;;;;44.28;16.40;;;;;;;-2.27;100.00;102079.91;5052983;28;20049;-54
2022/03/05 06:18:41;;;;;;;44.38;16.50;;;;;;;-2.23;100.00;102075.66;5054416;28;21005;-59
2022/03/05 06:21:10;;;;;;;47.03;16.90;;;;;;;-2.25;100.00;102083.38;5054481;28;20041;-58
2022/03/05 06:23:38;;;;;;;43.30;15.25;;;;;;;-2.17;100.00;102088.56;5054414;28;20080;-54
2022/03/05 06:26:06;;;;;;;43.65;17.27;;;;;;;-2.20;100.00;102088.56;5052834;28;20083;-53
2022/03/05 06:28:35;;;;;;;48.70;16.55;;;;;;;-2.23;100.00;102089.41;5053847;28;20139;-58
2022/03/05 06:31:04;;;;;;;42.50;16.85;;;;;;;-2.24;100.00;102090.25;5054140;28;20072;-58
2022/03/05 06:33:32;;;;;;;47.85;16.63;;;;;;;-2.26;100.00;102081.66;5053838;28;20099;-55
2022/03/05 06:36:01;;;;;;;44.15;17.10;;;;;;;-2.26;100.00;102091.94;5054024;28;20055;-52
2022/03/05 06:38:29;;;;;;;44.70;16.00;;;;;;;-2.19;100.00;102086.88;5054102;28;20053;-59
2022/03/05 06:40:58;;;;;;;42.90;16.30;;;;;;;-2.18;100.00;102088.56;5054191;28;20063;-52
2022/03/05 06:43:26;;;;;;;45.38;16.23;;;;;;;-2.25;100.00;102088.53;5053742;28;20063;-58
2022/03/05 06:45:54;;;;;;;44.10;16.40;;;;;;;-2.22;100.00;102087.69;5053745;28;20555;-58
2022/03/05 06:48:22;;;;;;;47.05;15.65;;;;;;;-2.21;100.00;102094.56;5054001;28;20116;-58
2022/03/05 06:50:50;;;;;;;45.85;17.88;;;;;;;-2.25;100.00;102091.13;5053636;28;20049;-53
2022/03/05 06:53:21;;;;;;;48.92;17.83;;;;;;;-2.22;100.00;102088.56;5053786;28;20060;-50
2022/03/05 06:55:49;;;;;;;49.80;20.23;;;;;;;-2.22;100.00;102098.84;5053667;28;20041;-53
2022/03/05 06:58:17;;;;;;;55.50;20.92;;;;;;;-2.22;100.00;102101.44;5053540;28;20040;-58
2022/03/05 07:00:46;;;;;;;50.72;19.70;;;;;;;-2.16;100.00;102095.47;5053406;28;20123;-52
2022/03/05 07:03:14;;;;;;;50.35;18.70;;;;;;;-2.15;100.00;102104.09;5053429;28;20079;-50
2022/03/05 07:05:42;;;;;;;56.20;21.05;;;;;;;-2.24;100.00;102103.13;5053522;28;20079;-58
2022/03/05 07:08:11;;;;;;;53.95;19.75;;;;;;;-2.14;100.00;102100.63;5053675;28;20048;-57
2022/03/05 07:10:40;;;;;;;56.35;22.55;;;;;;;-2.10;100.00;102098.09;5053663;28;20049;-58
2022/03/05 07:13:08;;;;;;;53.40;19.70;;;;;;;-2.13;100.00;102098.06;5053394;28;20049;-53
2022/03/05 07:15:36;;;;;;;58.15;20.80;;;;;;;-2.10;100.00;102100.69;5053305;28;20049;-52
2022/03/05 07:18:05;;;;;;;53.85;18.35;;;;;;;-2.12;100.00;102104.09;5052945;28;20510;-52
2022/03/05 07:20:33;;;;;;;47.85;18.27;;;;;;;-1.99;100.00;102110.19;5051846;28;20652;-52
2022/03/05 07:23:03;;;;;;;54.00;18.17;;;;;;;-2.07;100.00;102115.31;5053116;28;20468;-52
2022/03/05 07:25:36;;;;;;;47.97;17.20;;;;;;;-1.91;100.00;102129.16;5053109;28;20098;-52
2022/03/05 07:28:05;;;;;;;50.63;16.35;;;;;;;-1.82;100.00;102123.22;5053247;28;20460;-58
2022/03/05 07:30:33;;;;;;;47.60;16.55;;;;;;;-1.78;100.00;102114.66;5053232;28;20500;-59
2022/03/05 07:33:02;;;;;;;41.45;16.80;;;;;;;-1.69;100.00;102122.47;5052956;28;20492;-52
2022/03/05 07:35:30;;;;;;;44.08;15.88;;;;;;;-1.52;100.00;102122.53;5053091;28;20091;-51
2022/03/05 07:37:58;;;;;;;42.50;14.02;;;;;;;-1.43;100.00;102119.13;5053000;28;20508;-59
2022/03/05 07:40:27;;;;;;;38.47;15.00;;;;;;;-1.24;100.00;102122.66;5052619;28;20567;-51
2022/03/05 07:42:55;;;;;;;41.70;14.02;;;;;;;-0.84;99.52;102122.84;5053099;28;20041;-59
2022/03/05 07:45:25;;;;;;;39.92;15.10;;;;;;;-0.99;98.78;102127.97;5052866;28;20106;-59
2022/03/05 07:47:53;;;;;;;36.42;15.57;;;;;;;-0.85;98.14;102128.84;5052686;28;20052;-60
2022/03/05 07:50:21;;;;;;;44.58;16.38;;;;;;;-0.61;97.26;102125.47;5052700;28;20407;-59
2022/03/05 07:52:50;;;;;;;39.08;16.77;;;;;;;-0.58;96.43;102124.63;5052763;28;20040;-53
2022/03/05 07:55:18;;;;;;;39.38;13.82;;;;;;;-0.19;96.28;102126.38;5052400;28;20037;-55
2022/03/05 07:57:46;;;;;;;36.50;13.68;;;;;;;0.12;93.60;102128.97;5052634;28;20098;-59
2022/03/05 08:00:14;;;;;;;35.17;13.70;;;;;;;0.43;92.47;102126.28;5052623;28;20044;-54
2022/03/05 08:02:50;;;;;;;33.28;13.93;;;;;;;0.60;91.62;102130.56;5052479;28;20506;-60
2022/03/05 08:05:20;;;;;;;36.85;14.05;;;;;;;0.74;91.78;102133.97;5052509;28;20519;-55
2022/03/05 08:07:48;;;;;;;37.63;13.77;;;;;;;0.87;90.11;102133.94;5052374;28;20110;-51
2022/03/05 08:10:16;;;;;;;34.13;12.77;;;;;;;1.10;89.12;102132.09;5051741;28;20052;-53
2022/03/05 08:12:44;;;;;;;34.05;13.90;;;;;;;1.17;87.18;102126.03;5052595;28;20044;-52
2022/03/05 08:15:13;;;;;;;33.60;14.23;;;;;;;1.77;87.38;102118.72;5052516;28;20048;-54
2022/03/05 08:17:53;;;;;;;37.85;14.13;;;;;;;1.84;84.61;102126.44;5052150;28;20451;-54
2022/03/05 08:20:22;;;;;;;36.75;14.32;;;;;;;1.83;84.25;102124.72;5050768;28;20064;-55
2022/03/05 08:22:51;;;;;;;36.20;13.88;;;;;;;1.89;84.72;102125.53;5052281;28;20045;-59
2022/03/05 08:25:19;;;;;;;33.17;13.45;;;;;;;1.88;84.33;102139.38;5052408;28;20112;-59
2022/03/05 08:27:47;;;;;;;34.05;13.23;;;;;;;2.00;83.72;102136.69;5052249;28;20057;-60
2022/03/05 08:30:16;;;;;;;35.72;13.38;;;;;;;2.06;83.75;102136.63;5051969;28;20045;-59
2022/03/05 08:32:45;;;;;;;32.38;13.63;;;;;;;2.32;83.08;102138.13;5052160;28;20540;-54
2022/03/05 08:35:15;;;;;;;32.70;12.95;;;;;;;2.31;82.66;102133.81;5052324;28;20040;-60
2022/03/05 08:37:44;;;;;;;37.17;13.65;;;;;;;2.36;82.82;102143.25;5051603;28;20041;-54
2022/03/05 08:40:14;;;;;;;38.65;15.10;;;;;;;2.46;82.92;102136.22;5051642;28;20041;-53
2022/03/05 08:42:44;;;;;;;33.40;13.90;;;;;;;2.78;81.56;102141.94;5051777;28;20041;-55
2022/03/05 08:45:13;;;;;;;33.33;14.32;;;;;;;3.08;79.46;102143.31;5051837;28;20056;-52
2022/03/05 08:47:44;;;;;;;33.85;14.25;;;;;;;3.08;78.56;102145.94;5051831;28;20059;-53
2022/03/05 08:50:14;;;;;;;35.45;13.90;;;;;;;3.30;78.46;102146.50;5052074;28;20045;-52
2022/03/05 08:52:42;;;;;;;32.90;13.80;;;;;;;3.78;77.50;102142.31;5050819;28;20048;-53
2022/03/05 08:55:13;;;;;;;32.63;13.82;;;;;;;3.89;75.64;102135.19;5051981;28;20052;-53
2022/03/05 08:57:41;;;;;;;32.75;13.00;;;;;;;4.03;75.81;102142.78;5052038;28;20052;-52
2022/03/05 09:00:13;;;;;;;35.47;13.35;;;;;;;4.19;75.55;102133.81;5051830;28;20049;-55
2022/03/05 09:02:42;;;;;;;36.85;14.27;;;;;;;4.60;74.16;102127.88;5051709;28;20563;-54
2022/03/05 09:05:13;;;;;;;34.72;13.48;;;;;;;4.63;73.48;102126.03;5052087;28;20075;-53
2022/03/05 09:07:43;;;;;;;35.85;13.63;;;;;;;4.82;73.59;102123.91;5051342;28;20462;-55
2022/03/05 09:10:12;;;;;;;38.20;15.07;;;;;;;4.73;72.65;102126.69;5051239;28;20551;-53
2022/03/05 09:12:41;;;;;;;32.70;13.25;;;;;;;4.78;73.66;102130.09;5051800;28;20045;-54
2022/03/05 09:15:11;;;;;;;34.30;14.73;;;;;;;4.67;72.31;102124.25;5051931;28;20131;-55
2022/03/05 09:17:39;;;;;;;34.85;13.80;;;;;;;4.54;73.02;102126.22;5051688;28;20103;-54
2022/03/05 09:20:09;;;;;;;32.50;14.15;;;;;;;4.71;73.66;102126.75;5051627;28;20052;-53
2022/03/05 09:22:38;;;;;;;32.67;14.68;;;;;;;5.12;72.61;102126.75;5051310;28;20053;-52
2022/03/05 09:25:09;;;;;;;30.27;13.25;;;;;;;5.10;71.69;102123.34;5051787;28;20045;-54
2022/03/05 09:27:37;;;;;;;34.38;14.23;;;;;;;4.90;70.87;102127.22;5051760;28;20061;-52
2022/03/05 09:30:08;;;;;;;38.38;16.23;;;;;;;5.06;70.76;102124.31;5051685;28;20064;-54
2022/03/05 09:32:36;;;;;;;36.22;15.32;;;;;;;5.06;70.48;102121.69;5051543;28;20041;-51
2022/03/05 09:35:05;;;;;;;33.80;15.25;;;;;;;5.19;70.31;102125.72;5051578;28;20072;-52
2022/03/05 09:37:34;;;;;;;34.50;15.38;;;;;;;5.45;69.07;102128.66;5050597;28;20114;-53
2022/03/05 09:40:10;;;;;;;35.80;15.20;;;;;;;5.28;70.35;102126.44;5051592;28;20049;-54
2022/03/05 09:42:42;;;;;;;36.58;14.45;;;;;;;5.57;69.37;102123.16;5052267;28;20534;-54
2022/03/05 09:45:11;;;;;;;36.50;16.20;;;;;;;5.69;70.03;102116.78;5055044;28;20045;-53
2022/03/05 09:47:40;;;;;;;35.15;16.15;;;;;;;5.74;66.94;102117.53;5055376;28;20099;-55
2022/03/05 09:50:10;;;;;;;37.17;15.93;;;;;;;6.09;67.64;102113.19;5055117;28;20452;-55
2022/03/05 09:52:39;;;;;;;34.10;15.35;;;;;;;5.88;67.71;102114.59;5053688;28;20055;-54
2022/03/05 09:55:10;;;;;;;32.92;16.17;;;;;;;6.35;67.08;102114.25;5055105;28;20079;-54
2022/03/05 09:57:38;;;;;;;34.08;15.02;;;;;;;6.61;65.29;102113.53;5054703;28;20763;-55
2022/03/05 10:00:08;;;;;;;38.08;16.02;;;;;;;6.68;65.50;102119.44;5053185;28;20049;-53
2022/03/05 10:02:36;;;;;;;32.17;14.73;;;;;;;6.77;64.90;102120.03;5054595;28;20067;-54
2022/03/05 10:05:16;;;;;;;37.15;14.90;;;;;;;7.11;64.42;102115.56;5054970;28;20667;-55
2022/03/05 10:08:01;;;;;;;33.90;14.32;;;;;;;7.07;63.13;102117.41;5054867;28;20518;-55
2022/03/05 10:10:30;;;;;;;33.83;14.20;;;;;;;7.24;62.87;102118.66;5054763;28;20053;-55
2022/03/05 10:13:16;;;;;;;31.60;14.05;;;;;;;7.39;62.87;102120.81;5054715;28;20045;-53
2022/03/05 10:15:44;;;;;;;34.78;14.88;;;;;;;7.48;61.97;102127.50;5054712;28;20059;-54
2022/03/05 10:18:12;;;;;;;33.10;16.17;;;;;;;7.80;60.51;102109.91;5054573;28;20053;-54
2022/03/05 10:20:45;;;;;;;33.97;15.00;;;;;;;7.79;58.43;102116.06;5054518;28;20057;-54
2022/03/05 10:23:13;;;;;;;33.17;15.90;;;;;;;7.93;58.95;102108.59;5054616;28;20045;-55
2022/03/05 10:25:44;;;;;;;33.78;15.73;;;;;;;8.00;58.06;102113.63;5054440;28;20051;-54
2022/03/05 10:28:15;;;;;;;33.05;16.27;;;;;;;8.38;57.55;102104.41;5054203;28;20110;-54
2022/03/05 10:30:46;;;;;;;30.80;15.45;;;;;;;8.25;57.24;102104.00;5054107;28;20048;-55
2022/03/05 10:33:25;;;;;;;30.55;14.40;;;;;;;8.58;56.74;102102.88;5054112;28;20049;-55
2022/03/05 10:35:54;;;;;;;33.97;14.95;;;;;;;8.91;55.67;102102.53;5052631;28;20072;-53
2022/03/05 10:38:23;;;;;;;30.08;14.20;;;;;;;9.00;55.07;102106.56;5053575;28;20558;-53
2022/03/05 10:40:57;;;;;;;32.17;15.15;;;;;;;9.19;54.59;102104.06;5053825;28;20064;-54
2022/03/05 10:43:26;;;;;;;32.05;14.35;;;;;;;9.25;54.77;102107.31;5053882;28;20052;-53
2022/03/05 10:45:58;;;;;;;35.05;16.10;;;;;;;9.76;52.85;102104.41;5054184;28;20049;-53
2022/03/05 10:48:28;;;;;;;35.20;16.33;;;;;;;9.47;52.56;102102.09;5054349;28;20045;-54
2022/03/05 10:50:58;;;;;;;31.63;14.55;;;;;;;9.60;52.67;102096.34;5052796;28;20056;-53
2022/03/05 10:53:40;;;;;;;29.50;14.75;;;;;;;9.56;52.42;102094.75;5053859;28;20472;-52
2022/03/05 10:56:23;;;;;;;32.63;15.07;;;;;;;9.62;51.61;102103.19;5054086;28;20053;-53
2022/03/05 10:58:58;;;;;;;;;;;;;;;9.72;51.68;102095.81;5054416;28;20531;-54
2022/03/05 11:01:26;;;;;;;36.70;15.32;;;;;;;9.83;52.70;102103.25;5053478;28;19921;-55
2022/03/05 11:03:56;;;;;;;29.13;14.88;;;;;;;10.26;51.61;102100.56;5053522;28;20045;-55
2022/03/05 11:06:25;;;;;;;33.30;16.35;;;;;;;10.23;51.66;102098.91;5053726;28;20135;-55
2022/03/05 11:08:53;;;;;;;30.77;14.77;;;;;;;10.51;50.94;102100.34;5053612;28;20598;-55
2022/03/05 11:11:22;;;;;;;34.13;17.17;;;;;;;10.62;50.52;102102.47;5053730;28;20053;-50
2022/03/05 11:13:50;;;;;;;30.30;16.10;;;;;;;11.04;49.81;102097.94;5053530;28;20455;-53
2022/03/05 11:16:19;;;;;;;30.98;15.75;;;;;;;10.74;49.61;102096.66;5053569;28;20041;-55
2022/03/05 11:18:47;;;;;;;29.50;15.10;;;;;;;11.11;49.27;102100.22;5053574;28;20508;-55
2022/03/05 11:21:16;;;;;;;32.13;15.35;;;;;;;10.66;49.79;102104.06;5053435;28;20064;-54